Time;durP1;ratioP1;P1;durP2;ratioP2;P2;SDS_P1;SDS_P2;PMS_P1;PMS_P2;Temp;Humidity;BMP_temperature;BMP_pressure;BME280_temperature;BME280_humidity;BME280_pressure;Samples;Min_cycle;Max_cycle;Signal;HPM_P1;HPM_P2
2022/01/19 00:01:35;;;;;;;2.15;1.10;;;19.50;49.40;;;;;;6174257;28;20089;-69
2022/01/19 00:04:36;;;;;;;1.65;0.80;;;19.50;49.60;;;;;;6174383;28;20480;-70
2022/01/19 00:07:36;;;;;;;2.15;0.82;;;19.50;49.50;;;;;;6173897;28;20382;-70
2022/01/19 00:10:37;;;;;;;1.88;1.00;;;19.50;49.50;;;;;;6173744;28;20059;-69
2022/01/19 00:13:37;;;;;;;1.50;0.75;;;19.50;49.60;;;;;;6177493;28;20022;-70
2022/01/19 00:16:38;;;;;;;1.52;0.70;;;19.50;49.50;;;;;;6173837;28;20077;-69
2022/01/19 00:19:38;;;;;;;1.33;0.70;;;19.50;49.50;;;;;;6173492;28;20102;-70
2022/01/19 00:22:40;;;;;;;1.98;0.90;;;19.50;49.60;;;;;;6174678;28;20085;-69
2022/01/19 00:25:40;;;;;;;1.92;1.00;;;19.50;49.50;;;;;;6173572;28;20385;-70
2022/01/19 00:28:41;;;;;;;1.73;0.70;;;19.50;50.30;;;;;;6209797;28;20033;-70
2022/01/19 00:31:41;;;;;;;0.93;0.60;;;19.50;49.40;;;;;;6197031;28;20031;-70
2022/01/19 00:34:42;;;;;;;1.15;0.60;;;19.50;49.70;;;;;;6197666;28;20084;-69
2022/01/19 00:37:43;;;;;;;1.52;0.73;;;19.50;49.70;;;;;;6197109;28;20029;-70
2022/01/19 00:40:44;;;;;;;1.30;0.80;;;19.50;49.50;;;;;;6197304;28;20018;-70
2022/01/19 00:43:45;;;;;;;1.48;0.75;;;19.50;49.60;;;;;;6197393;28;20078;-69
2022/01/19 00:46:46;;;;;;;1.33;0.60;;;19.50;49.60;;;;;;6197397;28;20088;-70
2022/01/19 00:49:46;;;;;;;1.48;0.63;;;19.50;49.60;;;;;;6195356;28;20034;-69
2022/01/19 00:52:47;;;;;;;1.20;0.68;;;19.50;49.70;;;;;;6196888;28;20548;-70
2022/01/19 00:55:47;;;;;;;2.47;1.05;;;19.50;49.60;;;;;;6197237;28;20030;-70
2022/01/19 00:58:48;;;;;;;1.95;0.77;;;19.50;50.30;;;;;;6197198;28;20113;-70
2022/01/19 01:01:49;;;;;;;1.13;0.75;;;19.50;49.60;;;;;;6196408;28;20019;-70
2022/01/19 01:04:49;;;;;;;0.82;0.60;;;19.50;49.60;;;;;;6196978;28;20330;-69
2022/01/19 01:07:50;;;;;;;0.80;0.60;;;19.50;49.60;;;;;;6196477;28;20050;-70
2022/01/19 01:10:51;;;;;;;1.08;0.60;;;19.50;49.60;;;;;;6197037;28;20539;-70
2022/01/19 01:17:10;;;;;;;1.02;0.73;;;19.40;49.50;;;;;;6196813;28;20134;-70
2022/01/19 01:20:12;;;;;;;2.00;0.70;;;19.40;49.50;;;;;;6196087;28;20023;-70
2022/01/19 01:23:12;;;;;;;1.15;0.50;;;19.40;49.50;;;;;;6196568;28;20113;-70
2022/01/19 01:26:13;;;;;;;1.85;0.80;;;19.40;49.50;;;;;;6196133;28;20042;-70
2022/01/19 01:29:13;;;;;;;1.45;0.80;;;19.40;49.50;;;;;;6195862;28;20081;-70
2022/01/19 01:32:14;;;;;;;1.30;0.60;;;19.40;49.50;;;;;;6196203;28;20030;-70
2022/01/19 01:35:14;;;;;;;1.40;0.70;;;19.40;49.50;;;;;;6195773;28;20109;-70
2022/01/19 01:38:15;;;;;;;1.80;0.93;;;19.40;49.60;;;;;;6195681;28;20030;-70
2022/01/19 01:41:16;;;;;;;2.00;0.80;;;19.40;49.40;;;;;;6196284;28;20378;-70
2022/01/19 01:44:17;;;;;;;0.93;0.60;;;19.40;49.40;;;;;;6196068;28;20117;-70
2022/01/19 01:47:19;;;;;;;1.70;0.70;;;19.40;49.50;;;;;;6195849;28;20061;-70
2022/01/19 01:53:39;;;;;;;1.42;0.60;;;19.40;49.50;;;;;;6179235;28;20031;-70
2022/01/19 01:56:39;;;;;;;2.15;0.80;;;19.40;49.50;;;;;;6171572;28;20512;-70
2022/01/19 01:59:40;;;;;;;1.95;0.88;;;19.40;49.50;;;;;;6171019;28;20428;-70
2022/01/19 02:02:40;;;;;;;2.45;0.80;;;19.50;49.50;;;;;;6171726;28;20023;-70
2022/01/19 02:05:54;;;;;;;2.05;0.65;;;19.40;49.60;;;;;;6171200;28;20257;-70
2022/01/19 02:09:07;;;;;;;1.10;0.70;;;19.40;49.60;;;;;;6189976;28;20881;-70
2022/01/19 02:22:02;;;;;;;1.13;0.50;;;19.40;49.50;;;;;;6195235;28;20030;-70
2022/01/19 02:25:04;;;;;;;1.00;0.70;;;19.40;49.50;;;;;;6194910;28;20034;-70
2022/01/19 02:41:06;;;;;;;1.95;0.80;;;19.40;49.50;;;;;;6194203;28;20034;-70
2022/01/19 02:44:10;;;;;;;0.90;0.65;;;19.40;49.40;;;;;;6194603;28;20069;-70
2022/01/19 02:50:17;;;;;;;1.52;0.90;;;19.40;49.50;;;;;;6194331;28;20022;-70
2022/01/19 02:53:18;;;;;;;0.80;0.60;;;19.40;49.50;;;;;;6180709;28;20023;-72
2022/01/19 02:56:27;;;;;;;1.50;0.82;;;19.40;49.50;;;;;;6170148;28;20023;-70
2022/01/19 02:59:44;;;;;;;1.30;0.82;;;19.40;49.50;;;;;;6169791;28;20027;-70
2022/01/19 03:09:29;;;;;;;1.17;0.67;;;19.40;49.50;;;;;;6169792;28;20054;-70
2022/01/19 03:12:30;;;;;;;1.35;0.77;;;19.40;49.50;;;;;;6170010;28;20066;-70
2022/01/19 03:15:30;;;;;;;1.60;0.77;;;19.40;49.40;;;;;;6170119;28;20078;-70
2022/01/19 03:18:31;;;;;;;0.50;0.50;;;19.40;49.50;;;;;;6170025;28;20463;-70
2022/01/19 03:21:32;;;;;;;0.95;0.60;;;19.40;49.40;;;;;;6169546;28;20032;-70
2022/01/19 03:24:38;;;;;;;2.40;1.00;;;19.40;49.40;;;;;;6169366;28;20056;-69
2022/01/19 03:27:40;;;;;;;1.10;0.70;;;19.40;49.40;;;;;;6187955;28;20041;-70
2022/01/19 03:30:41;;;;;;;2.22;0.70;;;19.40;49.40;;;;;;6193701;28;20105;-70
2022/01/19 03:33:41;;;;;;;1.42;0.70;;;19.40;49.30;;;;;;6193153;28;20120;-70
2022/01/19 03:36:42;;;;;;;0.93;0.60;;;19.40;49.30;;;;;;6193662;28;20030;-70
2022/01/19 03:39:43;;;;;;;1.70;0.70;;;19.40;49.40;;;;;;6193215;28;20378;-69
2022/01/19 03:42:43;;;;;;;0.85;0.50;;;19.40;49.30;;;;;;6192368;28;20035;-70
2022/01/19 03:45:51;;;;;;;1.65;0.77;;;19.40;49.30;;;;;;6193397;28;20036;-70
2022/01/19 03:49:08;;;;;;;1.30;0.60;;;19.40;49.30;;;;;;6193506;28;20052;-70
2022/01/19 03:52:09;;;;;;;1.38;0.73;;;19.40;49.40;;;;;;6189123;28;20026;-70
2022/01/19 03:55:11;;;;;;;2.20;0.98;;;19.40;49.30;;;;;;6169751;28;20496;-70
2022/01/19 03:58:12;;;;;;;1.20;0.77;;;19.40;49.30;;;;;;6169630;28;20027;-70
2022/01/19 04:01:12;;;;;;;2.47;0.70;;;19.40;49.40;;;;;;6169460;28;20113;-69
2022/01/19 04:04:31;;;;;;;2.60;0.98;;;19.40;49.40;;;;;;6169065;28;20031;-69
2022/01/19 04:07:32;;;;;;;1.25;0.73;;;19.40;49.40;;;;;;6187568;28;20034;-70
2022/01/19 04:10:33;;;;;;;2.25;1.17;;;19.40;49.40;;;;;;6192994;28;20421;-70
2022/01/19 04:13:45;;;;;;;2.28;0.80;;;19.40;49.40;;;;;;6193213;28;20034;-70
2022/01/19 04:16:46;;;;;;;0.80;0.50;;;19.40;49.40;;;;;;6193130;28;20441;-69
2022/01/19 04:19:48;;;;;;;0.65;0.52;;;19.40;49.30;;;;;;6193378;28;20524;-70
2022/01/19 04:22:48;;;;;;;0.70;0.60;;;19.40;49.30;;;;;;6193113;28;20031;-69
2022/01/19 04:25:49;;;;;;;1.90;0.80;;;19.40;49.30;;;;;;6193288;28;20408;-70
2022/01/19 04:28:49;;;;;;;1.05;0.52;;;19.40;49.40;;;;;;6192687;28;20034;-70
2022/01/19 04:31:50;;;;;;;1.58;0.80;;;19.40;49.30;;;;;;6192693;28;20055;-70
2022/01/19 04:34:51;;;;;;;1.95;0.80;;;19.40;49.40;;;;;;6192928;28;20026;-69
2022/01/19 04:44:52;;;;;;;1.10;0.60;;;19.40;49.40;;;;;;6197501;28;20022;-70
2022/01/19 05:01:34;;;;;;;2.65;0.82;;;19.40;49.40;;;;;;6171327;28;20070;-70
2022/01/19 05:04:50;;;;;;;0.95;0.57;;;19.40;49.40;;;;;;6173099;28;20041;-69
2022/01/19 05:14:10;;;;;;;2.15;0.70;;;19.40;49.40;;;;;;6196953;28;20038;-70
2022/01/19 05:17:11;;;;;;;1.73;0.85;;;19.40;49.40;;;;;;6196548;28;20532;-70
2022/01/19 05:20:12;;;;;;;1.40;0.50;;;19.40;49.40;;;;;;6196394;28;20034;-70
2022/01/19 05:23:14;;;;;;;1.40;0.65;;;19.40;49.30;;;;;;6196156;28;20026;-69
2022/01/19 05:26:15;;;;;;;1.45;0.55;;;19.40;49.40;;;;;;6196052;28;20067;-69
2022/01/19 05:29:16;;;;;;;1.35;0.70;;;19.40;49.40;;;;;;6196165;28;20101;-70
2022/01/19 05:32:17;;;;;;;2.05;0.70;;;19.40;49.50;;;;;;6195699;28;20389;-70
2022/01/19 05:35:17;;;;;;;1.23;0.80;;;19.40;49.50;;;;;;6196377;28;20294;-70
2022/01/19 05:38:18;;;;;;;1.38;0.60;;;19.40;49.50;;;;;;6195780;28;20038;-70
2022/01/19 05:41:19;;;;;;;2.40;0.70;;;19.40;49.50;;;;;;6195950;28;20030;-70
2022/01/19 05:44:20;;;;;;;2.00;0.70;;;19.40;49.50;;;;;;6196569;28;20034;-70
2022/01/19 05:47:20;;;;;;;1.13;0.68;;;19.40;49.50;;;;;;6196419;28;20038;-70
2022/01/19 05:50:21;;;;;;;1.15;0.60;;;19.40;49.50;;;;;;6195316;28;20508;-70
2022/01/19 05:53:22;;;;;;;0.60;0.50;;;19.40;49.50;;;;;;6181516;28;20034;-70
2022/01/19 05:56:22;;;;;;;1.17;0.70;;;19.40;49.50;;;;;;6171371;28;20027;-70
2022/01/19 05:59:23;;;;;;;1.45;0.60;;;19.40;49.50;;;;;;6171698;28;20023;-70
2022/01/19 06:02:23;;;;;;;0.77;0.52;;;19.40;49.50;;;;;;6171464;28;20039;-70
2022/01/19 06:05:24;;;;;;;0.68;0.57;;;19.40;49.50;;;;;;6171504;28;20023;-70
2022/01/19 06:11:25;;;;;;;0.98;0.50;;;19.40;49.50;;;;;;6173308;28;20560;-70
2022/01/19 06:14:25;;;;;;;1.42;0.65;;;19.40;49.50;;;;;;6171105;28;20022;-69
2022/01/19 06:17:26;;;;;;;0.50;0.50;;;19.40;49.50;;;;;;6170995;28;20228;-70
2022/01/19 06:20:27;;;;;;;1.30;0.70;;;19.40;49.50;;;;;;6173588;28;20077;-70
2022/01/19 06:23:27;;;;;;;1.30;0.68;;;19.40;49.50;;;;;;6170617;28;20085;-70
2022/01/19 06:26:28;;;;;;;1.30;0.60;;;19.40;49.60;;;;;;6175754;28;20397;-70
2022/01/19 06:29:28;;;;;;;1.15;0.52;;;19.40;49.60;;;;;;6194705;28;20105;-69
2022/01/19 06:32:29;;;;;;;0.80;0.50;;;19.40;49.60;;;;;;6194778;28;20473;-70
2022/01/19 06:35:29;;;;;;;1.55;0.77;;;19.40;49.60;;;;;;6194443;28;20137;-69
2022/01/19 06:38:30;;;;;;;1.52;0.77;;;19.40;49.70;;;;;;6194673;28;20030;-70
2022/01/19 06:41:31;;;;;;;1.65;0.60;;;19.40;49.60;;;;;;6194503;28;20396;-70
2022/01/19 06:44:32;;;;;;;1.02;0.50;;;19.40;49.60;;;;;;6194486;28;20026;-70
2022/01/19 06:47:33;;;;;;;1.00;0.60;;;19.40;49.60;;;;;;6194456;28;20030;-70
2022/01/19 06:50:34;;;;;;;0.93;0.55;;;19.40;49.70;;;;;;6194079;28;20697;-70
2022/01/19 06:53:34;;;;;;;0.73;0.52;;;19.40;49.70;;;;;;6178263;28;20030;-70
2022/01/19 06:56:37;;;;;;;1.08;0.57;;;19.40;49.60;;;;;;6170095;28;20142;-70
2022/01/19 06:59:38;;;;;;;0.60;0.50;;;19.40;49.70;;;;;;6172385;28;20062;-70
2022/01/19 07:02:39;;;;;;;1.00;0.47;;;19.40;49.60;;;;;;6193792;28;20027;-70
2022/01/19 07:05:40;;;;;;;1.42;0.70;;;19.40;49.70;;;;;;6195656;28;20035;-70
2022/01/19 07:08:41;;;;;;;1.45;0.60;;;19.40;49.70;;;;;;6196110;28;20552;-70
2022/01/19 07:11:42;;;;;;;1.30;0.68;;;19.40;49.70;;;;;;6195884;28;20031;-70
2022/01/19 07:14:43;;;;;;;6.28;0.70;;;19.40;49.70;;;;;;6195984;28;20033;-69
2022/01/19 07:17:43;;;;;;;2.17;0.90;;;19.50;49.80;;;;;;6195598;28;20421;-70
2022/01/19 07:20:44;;;;;;;1.58;0.70;;;19.50;49.70;;;;;;6196187;28;20025;-70
2022/01/19 07:23:44;;;;;;;3.13;0.90;;;19.50;49.70;;;;;;6195679;28;20027;-69
2022/01/19 07:26:45;;;;;;;1.60;0.60;;;19.50;49.70;;;;;;6195444;28;20030;-69
2022/01/19 07:29:46;;;;;;;2.00;0.40;;;19.50;49.70;;;;;;6195677;28;20022;-70
2022/01/19 07:32:49;;;;;;;1.80;0.60;;;19.50;49.70;;;;;;6195242;28;20057;-69
2022/01/19 07:35:51;;;;;;;1.52;0.60;;;19.50;49.70;;;;;;6195803;28;20492;-69
2022/01/19 07:38:51;;;;;;;3.00;0.73;;;19.50;49.80;;;;;;6182564;28;20058;-69
2022/01/19 07:41:53;;;;;;;1.15;0.63;;;19.50;49.80;;;;;;6193147;28;20034;-69
2022/01/19 07:44:54;;;;;;;3.25;0.70;;;19.50;49.70;;;;;;6198316;28;20058;-70
2022/01/19 07:47:55;;;;;;;4.47;0.57;;;19.50;49.50;;;;;;6193720;28;20033;-70
2022/01/19 07:50:55;;;;;;;1.33;0.52;;;19.60;50.20;;;;;;6194502;28;20022;-70
2022/01/19 07:53:56;;;;;;;2.42;0.73;;;19.60;49.50;;;;;;6175403;28;20610;-70
2022/01/19 07:56:56;;;;;;;1.20;0.60;;;19.60;49.40;;;;;;6181187;28;20035;-69
2022/01/19 07:59:57;;;;;;;2.60;0.60;;;19.60;50.00;;;;;;6193777;28;20038;-70
2022/01/19 08:02:57;;;;;;;1.02;0.60;;;19.70;49.30;;;;;;6192534;28;20374;-69
2022/01/19 08:05:58;;;;;;;1.95;0.70;;;19.70;49.20;;;;;;6193777;28;20038;-70
2022/01/19 08:08:58;;;;;;;2.60;0.70;;;19.70;49.20;;;;;;6192325;28;20050;-70
2022/01/19 08:11:59;;;;;;;1.80;0.93;;;19.70;49.30;;;;;;6195191;28;20542;-70
2022/01/19 08:15:00;;;;;;;2.55;0.68;;;19.70;49.40;;;;;;6198227;28;20038;-69
2022/01/19 08:18:00;;;;;;;2.35;0.82;;;19.60;49.50;;;;;;6198608;28;20023;-70
2022/01/19 08:21:01;;;;;;;1.15;0.65;;;19.60;49.60;;;;;;6198644;28;20517;-69
2022/01/19 08:24:01;;;;;;;3.20;0.63;;;19.60;49.60;;;;;;6195979;28;20041;-69
2022/01/19 08:27:02;;;;;;;0.82;0.55;;;19.60;49.70;;;;;;6197943;28;20060;-69
2022/01/19 08:30:09;;;;;;;1.80;0.52;;;19.60;49.70;;;;;;6198230;28;20054;-70
2022/01/19 08:33:10;;;;;;;0.88;0.63;;;19.60;49.80;;;;;;6197203;28;20026;-69
2022/01/19 08:36:11;;;;;;;1.83;0.70;;;19.60;49.70;;;;;;6198430;28;20473;-70
2022/01/19 08:39:11;;;;;;;1.92;0.70;;;19.60;49.70;;;;;;6197717;28;20066;-70
2022/01/19 08:42:12;;;;;;;1.95;0.75;;;19.60;49.80;;;;;;6198110;28;20034;-69
2022/01/19 08:45:13;;;;;;;1.13;0.60;;;19.60;49.80;;;;;;6216111;28;20059;-69
2022/01/19 08:48:13;;;;;;;2.20;0.90;;;19.60;49.80;;;;;;6221689;28;20049;-71
2022/01/19 08:51:14;;;;;;;1.00;0.65;;;19.60;49.80;;;;;;6221983;28;20117;-70
2022/01/19 08:54:14;;;;;;;1.25;0.60;;;19.50;49.70;;;;;;6179463;28;20027;-70
2022/01/19 08:57:16;;;;;;;1.77;0.50;;;19.60;49.80;;;;;;6173236;28;20111;-69
2022/01/19 09:00:18;;;;;;;1.27;0.77;;;19.60;49.80;;;;;;6173379;28;20058;-69
2022/01/19 09:03:19;;;;;;;2.13;0.57;;;19.60;49.90;;;;;;6173474;28;20278;-69
2022/01/19 09:06:19;;;;;;;1.27;0.63;;;19.60;49.80;;;;;;6173152;28;20081;-69
2022/01/19 09:09:20;;;;;;;1.13;0.63;;;19.60;49.90;;;;;;6172781;28;20054;-69
2022/01/19 09:12:21;;;;;;;0.93;0.68;;;19.60;49.80;;;;;;6173070;28;20110;-69
2022/01/19 09:15:23;;;;;;;1.13;0.80;;;19.60;49.90;;;;;;6173136;28;20038;-69
2022/01/19 09:18:23;;;;;;;2.97;0.80;;;19.60;49.90;;;;;;6172537;28;20027;-69
2022/01/19 09:21:24;;;;;;;2.03;0.70;;;19.50;49.80;;;;;;6172967;28;20026;-69
2022/01/19 09:24:25;;;;;;;1.10;0.40;;;19.50;49.80;;;;;;6172222;28;20037;-69
2022/01/19 09:27:25;;;;;;;1.80;0.68;;;19.60;49.90;;;;;;6185280;28;20044;-69
2022/01/19 09:30:26;;;;;;;2.90;0.80;;;19.50;49.80;;;;;;6197261;28;20464;-69
2022/01/19 09:33:29;;;;;;;1.27;0.63;;;19.50;49.80;;;;;;6196041;28;20026;-70
2022/01/19 09:36:33;;;;;;;1.13;0.68;;;19.50;49.90;;;;;;6197870;28;20220;-69
2022/01/19 09:39:33;;;;;;;2.63;0.80;;;19.50;49.90;;;;;;6196698;28;20034;-69
2022/01/19 09:42:34;;;;;;;1.15;0.70;;;19.50;49.90;;;;;;6197431;28;20061;-70
2022/01/19 09:45:36;;;;;;;2.40;0.95;;;19.50;49.90;;;;;;6218707;28;20476;-70
2022/01/19 09:48:36;;;;;;;2.38;0.60;;;19.50;49.90;;;;;;6200003;28;20042;-71
2022/01/19 09:51:40;;;;;;;2.88;1.02;;;19.50;49.90;;;;;;6211451;28;20085;-70
2022/01/19 09:54:41;;;;;;;1.83;1.27;;;19.50;49.70;;;;;;6172492;28;20485;-70
2022/01/19 09:57:41;;;;;;;4.50;1.88;;;19.50;48.80;;;;;;6172955;28;20027;-70
2022/01/19 10:00:42;;;;;;;8.15;2.60;;;19.40;47.70;;;;;;6171743;28;20034;-70
2022/01/19 10:03:43;;;;;;;3.63;2.10;;;19.40;46.70;;;;;;6172365;28;20507;-70
2022/01/19 10:06:44;;;;;;;4.97;2.50;;;19.40;45.90;;;;;;6172549;28;20049;-70
2022/01/19 10:09:53;;;;;;;4.80;2.40;;;19.40;45.00;;;;;;6171618;28;20054;-70
2022/01/19 10:19:49;;;;;;;2.92;1.52;;;19.50;47.30;;;;;;6171738;28;20034;-70
2022/01/19 10:22:50;;;;;;;4.00;1.50;;;19.50;46.60;;;;;;6171907;28;20053;-70
2022/01/19 10:25:51;;;;;;;2.78;1.23;;;19.50;47.00;;;;;;6171117;28;20030;-70
2022/01/19 10:28:56;;;;;;;2.97;1.17;;;19.50;47.50;;;;;;6194752;28;20397;-70
2022/01/19 10:32:03;;;;;;;2.80;1.23;;;19.50;47.80;;;;;;6195062;28;20034;-70
2022/01/19 10:35:17;;;;;;;2.80;1.15;;;19.50;48.00;;;;;;6182709;28;20477;-70
2022/01/19 10:38:26;;;;;;;2.97;1.10;;;19.50;48.20;;;;;;6196694;28;20028;-70
2022/01/19 10:41:26;;;;;;;2.78;0.88;;;19.50;48.30;;;;;;6195747;28;20057;-69
2022/01/19 10:44:34;;;;;;;4.22;1.33;;;19.50;48.40;;;;;;6208388;28;20030;-70
2022/01/19 10:47:55;;;;;;;2.83;1.30;;;19.50;48.40;;;;;;6219196;28;20120;-70
2022/01/19 10:51:20;;;;;;;1.67;0.82;;;19.50;48.50;;;;;;6219089;28;20101;-70
2022/01/19 10:54:22;;;;;;;4.63;1.00;;;19.50;48.60;;;;;;6174640;28;20049;-70
2022/01/19 10:57:23;;;;;;;4.82;1.20;;;19.50;48.50;;;;;;6180165;28;20083;-70
2022/01/19 11:00:30;;;;;;;3.70;1.40;;;19.50;48.20;;;;;;6194118;28;20035;-70
2022/01/19 11:03:31;;;;;;;1.67;1.15;;;19.40;47.70;;;;;;6194144;28;20038;-70
2022/01/19 11:06:32;;;;;;;4.85;2.15;;;19.40;47.20;;;;;;6194864;28;20377;-70
2022/01/19 11:09:35;;;;;;;4.90;2.47;;;19.50;46.60;;;;;;6193959;28;20054;-70
2022/01/19 11:12:46;;;;;;;6.43;2.30;;;19.40;45.80;;;;;;6194546;28;20014;-70
2022/01/19 11:15:47;;;;;;;4.57;2.42;;;19.40;45.60;;;;;;6194591;28;20077;-70
2022/01/19 11:18:48;;;;;;;7.43;2.55;;;19.40;44.70;;;;;;6194225;28;20029;-70
2022/01/19 11:21:51;;;;;;;7.60;2.33;;;19.40;44.20;;;;;;6194290;28;20030;-70
2022/01/19 11:25:14;;;;;;;6.10;2.42;;;19.40;44.00;;;;;;6193170;28;20291;-70
2022/01/19 11:28:37;;;;;;;4.10;2.33;;;19.30;43.50;;;;;;6193705;28;20481;-70
2022/01/19 11:31:39;;;;;;;5.80;3.50;;;19.30;42.90;;;;;;6193848;28;20034;-70
2022/01/19 11:34:50;;;;;;;7.05;3.10;;;19.30;42.60;;;;;;6192625;28;20061;-70
2022/01/19 11:37:53;;;;;;;8.20;3.33;;;19.30;42.40;;;;;;6194047;28;20038;-70
2022/01/19 11:40:54;;;;;;;5.05;3.03;;;19.30;42.30;;;;;;6194193;28;20069;-70
2022/01/19 11:43:57;;;;;;;11.30;3.33;;;19.30;42.20;;;;;;6203396;28;20101;-70
2022/01/19 11:47:09;;;;;;;8.77;3.92;;;19.30;42.10;;;;;;6219938;28;20026;-70
2022/01/19 11:50:15;;;;;;;8.50;4.03;;;19.30;41.90;;;;;;6223161;28;20053;-70
2022/01/19 11:53:16;;;;;;;6.05;3.80;;;19.30;41.80;;;;;;6197873;28;20067;-70
2022/01/19 11:56:16;;;;;;;8.13;4.70;;;19.30;41.80;;;;;;6174495;28;20485;-70
2022/01/19 11:59:17;;;;;;;7.05;4.78;;;19.30;41.60;;;;;;6186976;28;20054;-70
2022/01/19 12:02:20;;;;;;;11.13;4.72;;;19.30;41.60;;;;;;6199521;28;20018;-70
2022/01/19 12:05:37;;;;;;;6.07;4.38;;;19.30;41.50;;;;;;6198743;28;20385;-70
2022/01/19 12:08:38;;;;;;;6.90;4.32;;;19.30;41.60;;;;;;6198209;28;20062;-70
2022/01/19 12:11:50;;;;;;;5.78;3.70;;;19.30;42.00;;;;;;6198014;28;20385;-70
2022/01/19 12:14:51;;;;;;;6.95;3.28;;;19.40;42.70;;;;;;6198313;28;20045;-70
2022/01/19 12:17:57;;;;;;;4.88;3.08;;;19.40;43.20;;;;;;6198398;28;20037;-70
2022/01/19 12:20:57;;;;;;;5.90;3.03;;;19.40;43.60;;;;;;6196941;28;20046;-70
2022/01/19 12:24:24;;;;;;;3.65;2.88;;;19.40;43.90;;;;;;6195646;28;20034;-70
2022/01/19 12:27:33;;;;;;;5.22;2.78;;;19.40;44.20;;;;;;6196608;28;20034;-70
2022/01/19 12:30:33;;;;;;;3.45;2.08;;;19.40;45.10;;;;;;6196950;28;20026;-69
2022/01/19 12:33:34;;;;;;;3.78;2.63;;;19.40;44.70;;;;;;6196963;28;20100;-70
2022/01/19 12:36:40;;;;;;;3.97;2.53;;;19.40;45.00;;;;;;6197338;28;20541;-70
2022/01/19 12:39:43;;;;;;;3.75;2.20;;;19.40;45.00;;;;;;6195792;28;20031;-70
2022/01/19 12:42:59;;;;;;;5.88;2.53;;;19.40;46.00;;;;;;6197840;28;20029;-70
2022/01/19 12:46:02;;;;;;;5.53;2.25;;;19.40;45.10;;;;;;6173897;28;20022;-70
2022/01/19 12:49:25;;;;;;;3.00;2.42;;;19.40;45.40;;;;;;6191110;28;20014;-70
2022/01/19 12:52:30;;;;;;;3.42;2.10;;;19.40;45.60;;;;;;6191601;28;20035;-70
2022/01/19 12:55:35;;;;;;;3.75;2.20;;;19.40;45.60;;;;;;6174038;28;20034;-70
2022/01/19 12:58:37;;;;;;;3.42;2.20;;;19.40;45.90;;;;;;6172276;28;20438;-70
2022/01/19 13:01:38;;;;;;;3.28;2.05;;;19.40;46.00;;;;;;6173863;28;20015;-70
2022/01/19 13:04:40;;;;;;;3.10;1.95;;;19.40;46.10;;;;;;6173124;28;20118;-70
2022/01/19 13:08:07;;;;;;;2.78;2.25;;;19.40;46.10;;;;;;6181005;28;20023;-70
2022/01/19 13:11:23;;;;;;;5.10;2.20;;;19.40;46.30;;;;;;6198308;28;20455;-71
2022/01/19 13:14:25;;;;;;;2.45;2.00;;;19.40;46.40;;;;;;6197419;28;20046;-70
2022/01/19 13:17:42;;;;;;;5.70;2.35;;;19.40;46.50;;;;;;6198354;28;20026;-70
2022/01/19 13:20:53;;;;;;;3.63;2.40;;;19.40;46.50;;;;;;6195995;28;20141;-70
2022/01/19 13:23:58;;;;;;;4.35;2.22;;;19.40;46.60;;;;;;6197723;28;20454;-70
2022/01/19 13:27:04;;;;;;;4.32;2.80;;;19.40;46.60;;;;;;6197465;28;20440;-70
2022/01/19 13:30:11;;;;;;;5.47;2.92;;;19.40;46.70;;;;;;6197288;28;20030;-71
2022/01/19 13:33:12;;;;;;;5.55;3.20;;;19.40;46.70;;;;;;6196501;28;20022;-70
2022/01/19 13:36:13;;;;;;;6.32;3.50;;;19.40;46.80;;;;;;6212290;28;20034;-70
2022/01/19 13:39:21;;;;;;;7.97;4.25;;;19.40;46.90;;;;;;6196734;28;20022;-70
2022/01/19 13:42:43;;;;;;;7.97;4.15;;;19.40;46.90;;;;;;6196950;28;20418;-70
2022/01/19 13:48:46;;;;;;;13.63;5.70;;;19.40;47.00;;;;;;6220989;28;20420;-70
2022/01/19 13:51:47;;;;;;;13.40;6.50;;;19.40;47.00;;;;;;6217974;28;20030;-70
2022/01/19 13:54:48;;;;;;;11.48;5.90;;;19.40;47.10;;;;;;6172623;28;20497;-70
2022/01/19 13:57:49;;;;;;;13.32;6.47;;;19.40;47.10;;;;;;6172136;28;20027;-70
2022/01/19 14:00:59;;;;;;;14.38;6.43;;;19.40;47.20;;;;;;6172120;28;20035;-70
2022/01/19 14:04:05;;;;;;;18.98;7.80;;;19.40;47.20;;;;;;6172552;28;20027;-70
2022/01/19 14:07:12;;;;;;;16.05;7.13;;;19.40;47.20;;;;;;6183435;28;20548;-70
2022/01/19 14:10:13;;;;;;;17.15;7.55;;;19.40;47.30;;;;;;6194039;28;20121;-70
2022/01/19 14:13:34;;;;;;;22.60;8.77;;;19.40;47.30;;;;;;6196302;28;20041;-70
2022/01/19 14:16:38;;;;;;;21.65;10.05;;;19.40;47.30;;;;;;6196052;28;20026;-70
2022/01/19 14:19:47;;;;;;;21.85;9.57;;;19.40;47.40;;;;;;6195398;28;20480;-70
2022/01/19 14:22:47;;;;;;;22.73;10.43;;;19.40;47.40;;;;;;6195737;28;20283;-70
2022/01/19 14:26:07;;;;;;;22.58;9.80;;;19.40;47.40;;;;;;6195292;28;20038;-70
2022/01/19 14:29:13;;;;;;;24.83;10.25;;;19.40;47.50;;;;;;6195558;28;20034;-70
2022/01/19 14:32:13;;;;;;;;;;;19.40;47.50;;;;;;6195520;28;20121;-70
2022/01/19 14:35:46;;;;;;;29.10;12.43;;;19.40;47.50;;;;;;6196443;28;19913;-69
2022/01/19 14:38:47;;;;;;;30.90;12.82;;;19.40;47.50;;;;;;6195948;28;20117;-70
2022/01/19 14:41:53;;;;;;;27.80;12.23;;;19.40;47.50;;;;;;6197761;28;20041;-70
2022/01/19 14:45:02;;;;;;;29.77;12.65;;;19.40;47.60;;;;;;6212858;28;20036;-70
2022/01/19 14:48:15;;;;;;;29.92;12.68;;;19.40;47.60;;;;;;6198885;28;20217;-70
2022/01/19 14:51:24;;;;;;;28.92;12.50;;;19.40;47.60;;;;;;6195778;28;20109;-70
2022/01/19 14:54:25;;;;;;;27.13;12.13;;;19.40;47.70;;;;;;6195045;28;20026;-70
2022/01/19 14:57:25;;;;;;;27.58;12.40;;;19.40;47.70;;;;;;6195574;28;20497;-70
2022/01/19 15:00:28;;;;;;;27.45;12.32;;;19.50;47.80;;;;;;6194316;28;20506;-70
2022/01/19 15:03:29;;;;;;;28.88;12.77;;;19.50;48.50;;;;;;6195454;28;20474;-70
2022/01/19 15:06:30;;;;;;;28.08;12.13;;;19.40;47.80;;;;;;6195508;28;20042;-70
2022/01/19 15:09:30;;;;;;;27.67;12.40;;;19.40;47.80;;;;;;6194074;28;20073;-70
2022/01/19 15:12:31;;;;;;;23.95;10.75;;;19.40;47.80;;;;;;6195315;28;20045;-70
2022/01/19 15:15:34;;;;;;;32.55;12.40;;;19.40;47.80;;;;;;6194748;28;20480;-70
2022/01/19 15:18:36;;;;;;;24.63;10.85;;;19.40;47.90;;;;;;6194703;28;20022;-70
2022/01/19 15:21:36;;;;;;;29.00;12.00;;;19.40;47.90;;;;;;6194068;28;20032;-70
2022/01/19 15:24:37;;;;;;;25.70;11.85;;;19.40;47.90;;;;;;6194151;28;20488;-70
2022/01/19 15:27:38;;;;;;;25.40;10.90;;;19.50;48.00;;;;;;6194384;28;20057;-70
2022/01/19 15:30:40;;;;;;;24.10;11.10;;;19.40;47.90;;;;;;6194933;28;20489;-70
2022/01/19 15:33:41;;;;;;;23.55;10.15;;;19.50;48.00;;;;;;6194515;28;20037;-70
2022/01/19 15:36:41;;;;;;;23.55;10.40;;;19.40;48.00;;;;;;6195461;28;20026;-70
2022/01/19 15:39:46;;;;;;;22.58;9.98;;;19.40;48.00;;;;;;6194790;28;20548;-70
2022/01/19 15:42:48;;;;;;;;;;;19.40;48.10;;;;;;6195440;28;20030;-70
2022/01/19 15:45:51;;;;;;;21.70;10.90;;;19.40;48.00;;;;;;6219121;28;19905;-70
2022/01/19 15:48:52;;;;;;;26.83;10.52;;;19.40;48.80;;;;;;6218193;28;20038;-70
2022/01/19 15:51:53;;;;;;;21.90;10.30;;;19.40;48.10;;;;;;6216290;28;20026;-70
2022/01/19 15:54:53;;;;;;;22.35;10.07;;;19.40;48.10;;;;;;6194608;28;20422;-70
2022/01/19 15:57:54;;;;;;;20.38;9.75;;;19.40;48.10;;;;;;6185291;28;20106;-69
2022/01/19 16:00:55;;;;;;;21.73;9.68;;;19.40;48.10;;;;;;6185624;28;20397;-70
2022/01/19 16:03:55;;;;;;;21.05;9.90;;;19.40;48.10;;;;;;6194816;28;20042;-70
2022/01/19 16:06:57;;;;;;;19.88;9.70;;;19.40;48.20;;;;;;6193099;28;20080;-70
2022/01/19 16:09:58;;;;;;;20.17;9.18;;;19.40;48.20;;;;;;6183943;28;20042;-69
2022/01/19 16:12:59;;;;;;;20.83;8.85;;;19.40;48.20;;;;;;6194216;28;20476;-70
2022/01/19 16:15:59;;;;;;;18.70;9.15;;;19.40;48.20;;;;;;6194785;28;20066;-70
2022/01/19 16:19:00;;;;;;;19.90;8.98;;;19.40;48.20;;;;;;6193484;28;20023;-70
2022/01/19 16:22:02;;;;;;;18.48;8.82;;;19.40;48.20;;;;;;6194250;28;20026;-69
2022/01/19 16:28:22;;;;;;;18.70;8.85;;;19.40;48.30;;;;;;6194119;28;20066;-70
2022/01/19 16:31:24;;;;;;;18.10;8.05;;;19.40;48.30;;;;;;6194864;28;20037;-70
2022/01/19 16:34:25;;;;;;;18.67;7.57;;;19.50;48.30;;;;;;6197429;28;20504;-71
2022/01/19 16:37:26;;;;;;;16.40;7.50;;;19.40;48.30;;;;;;6199220;28;20031;-70
2022/01/19 16:40:29;;;;;;;17.27;7.95;;;19.40;48.30;;;;;;6198854;28;20101;-70
2022/01/19 16:43:29;;;;;;;16.95;7.80;;;19.40;48.30;;;;;;6204495;28;20026;-70
2022/01/19 16:46:31;;;;;;;14.65;6.95;;;19.40;48.30;;;;;;6223329;28;20030;-70
2022/01/19 16:49:31;;;;;;;14.68;7.03;;;19.40;48.30;;;;;;6223110;28;20056;-70
2022/01/19 16:52:32;;;;;;;15.52;7.57;;;19.40;48.40;;;;;;6208334;28;20026;-69
2022/01/19 16:55:33;;;;;;;13.48;6.75;;;19.50;48.40;;;;;;6174623;28;20023;-70
2022/01/19 16:58:35;;;;;;;13.98;7.13;;;19.40;48.30;;;;;;6173840;28;20393;-70
2022/01/19 17:01:36;;;;;;;16.95;7.20;;;19.40;48.40;;;;;;6173524;28;20454;-70
2022/01/19 17:04:36;;;;;;;12.55;6.40;;;19.40;48.40;;;;;;6174213;28;20041;-70
2022/01/19 17:07:37;;;;;;;13.95;6.20;;;19.40;48.40;;;;;;6181813;28;20054;-70
2022/01/19 17:10:38;;;;;;;13.10;6.47;;;19.50;48.50;;;;;;6197757;28;20054;-70